createdAt,value
2023-03-15T00:02:29.484Z,71.74
2023-03-15T00:05:04.730Z,71.47
2023-03-15T00:07:52.574Z,71.45
2023-03-15T00:10:27.664Z,71.37
2023-03-15T00:13:15.520Z,71.30
2023-03-15T00:15:55.661Z,71.33
2023-03-15T00:18:43.527Z,71.50
2023-03-15T00:21:25.507Z,71.70
2023-03-15T00:24:13.518Z,71.83
2023-03-15T00:26:55.525Z,71.72
2023-03-15T00:29:50.533Z,71.62
2023-03-15T00:32:38.548Z,71.58
2023-03-15T00:35:20.526Z,71.13
2023-03-15T00:38:08.542Z,70.57
2023-03-15T00:40:44.637Z,70.26
2023-03-15T00:43:32.540Z,70.25
2023-03-15T00:46:14.547Z,70.05
2023-03-15T00:49:09.555Z,70.39
2023-03-15T00:52:04.516Z,70.40
2023-03-15T00:55:05.530Z,70.99
2023-03-15T00:57:47.299Z,71.50
2023-03-15T01:00:37.509Z,71.49
2023-03-15T01:03:18.541Z,71.68
2023-03-15T01:05:59.702Z,71.42
2023-03-15T01:08:41.603Z,71.78
2023-03-15T01:11:25.654Z,72.20
2023-03-15T01:14:07.521Z,72.41
2023-03-15T01:16:48.671Z,72.50
2023-03-15T01:19:29.512Z,72.74
2023-03-15T01:22:17.624Z,71.44
2023-03-15T01:25:12.627Z,70.34
2023-03-15T01:28:00.564Z,70.34
2023-03-15T01:30:35.701Z,70.45
2023-03-15T01:33:23.509Z,70.77
2023-03-15T01:36:21.515Z,70.81
2023-03-15T01:39:16.511Z,70.82
2023-03-15T01:42:11.511Z,70.93
2023-03-15T01:45:06.617Z,70.70
2023-03-15T01:47:49.534Z,71.47
2023-03-15T01:50:37.573Z,72.24
2023-03-15T01:53:19.504Z,72.53
2023-03-15T01:56:14.520Z,72.25
2023-03-15T01:59:04.512Z,72.04
2023-03-15T02:01:46.531Z,72.22
2023-03-15T02:04:49.507Z,72.35
2023-03-15T02:07:41.517Z,72.66
2023-03-15T02:10:21.695Z,72.43
2023-03-15T02:13:09.526Z,72.30
2023-03-15T02:15:46.997Z,72.38
2023-03-15T02:18:34.505Z,72.58
2023-03-15T02:21:24.645Z,72.74
2023-03-15T02:24:33.513Z,72.77
2023-03-15T02:27:21.561Z,72.85
2023-03-15T02:30:02.616Z,72.69
2023-03-15T02:32:43.732Z,72.38
2023-03-15T02:35:34.619Z,72.59
2023-03-15T02:38:22.660Z,72.21
2023-03-15T02:40:58.593Z,72.11
2023-03-15T02:43:46.557Z,72.27
2023-03-15T02:46:21.116Z,72.18
2023-03-15T02:49:09.630Z,71.96
2023-03-15T02:51:45.148Z,72.17
2023-03-15T02:54:33.516Z,72.10
2023-03-15T02:57:30.490Z,71.70
2023-03-15T03:00:20.544Z,71.84
2023-03-15T03:02:55.629Z,72.09
2023-03-15T03:05:43.522Z,72.30
2023-03-15T03:08:18.637Z,72.13
2023-03-15T03:11:06.498Z,71.78
2023-03-15T03:13:40.831Z,71.75
2023-03-15T03:16:29.523Z,71.74
2023-03-15T03:19:04.734Z,72.05
2023-03-15T03:21:52.494Z,72.04
2023-03-15T03:24:34.499Z,71.91
2023-03-15T03:27:29.506Z,72.08
2023-03-15T03:30:20.482Z,72.10
2023-03-15T03:33:01.581Z,72.36
2023-03-15T03:35:56.537Z,72.36
2023-03-15T03:38:44.495Z,72.59
2023-03-15T03:41:28.491Z,72.51
2023-03-15T03:44:23.523Z,72.23
2023-03-15T03:47:11.501Z,72.39
2023-03-15T03:49:52.695Z,72.44
2023-03-15T03:52:34.491Z,72.57
2023-03-15T03:55:32.559Z,72.38
2023-03-15T03:58:27.560Z,72.25
2023-03-15T04:01:15.497Z,72.42
2023-03-15T04:03:51.556Z,72.00
2023-03-15T04:06:39.492Z,71.78
2023-03-15T04:09:21.488Z,72.21
2023-03-15T04:12:09.623Z,71.93
2023-03-15T04:14:50.476Z,71.74
2023-03-15T04:17:31.501Z,71.71
2023-03-15T04:20:13.179Z,71.81
2023-03-15T04:23:01.472Z,72.02
2023-03-15T04:25:36.624Z,71.96
2023-03-15T04:28:25.502Z,72.02
2023-03-15T04:31:00.684Z,72.05
2023-03-15T04:33:48.491Z,71.99
2023-03-15T04:36:23.948Z,71.92
2023-03-15T04:39:12.522Z,71.88
2023-03-15T04:41:47.605Z,71.66
2023-03-15T04:44:35.490Z,71.52
2023-03-15T04:47:10.616Z,71.61
2023-03-15T04:49:58.505Z,71.83
2023-03-15T04:52:40.496Z,71.76
2023-03-15T04:55:35.479Z,71.88
2023-03-15T04:58:24.500Z,71.65
2023-03-15T05:01:07.498Z,71.41
2023-03-15T05:04:02.487Z,70.85
2023-03-15T05:06:50.475Z,70.54
2023-03-15T05:09:24.636Z,70.15
2023-03-15T05:12:13.490Z,69.51
2023-03-15T05:14:48.613Z,69.81
2023-03-15T05:17:36.479Z,69.79
2023-03-15T05:20:20.932Z,69.75
2023-03-15T05:23:02.495Z,68.91
2023-03-15T05:25:43.741Z,68.82
2023-03-15T05:28:25.504Z,68.50
2023-03-15T05:31:06.624Z,68.41
2023-03-15T05:33:53.491Z,68.10
2023-03-15T05:36:34.770Z,68.08
2023-03-15T05:39:16.583Z,68.18
2023-03-15T05:41:57.619Z,68.59
2023-03-15T05:44:38.508Z,68.73
2023-03-15T05:47:19.683Z,68.58
2023-03-15T05:50:00.493Z,68.35
2023-03-15T05:52:48.474Z,68.61
2023-03-15T05:55:36.491Z,67.93
2023-03-15T05:58:24.469Z,68.03
2023-03-15T06:01:01.611Z,68.08
2023-03-15T06:03:49.644Z,67.87
2023-03-15T06:06:33.583Z,67.75
2023-03-15T06:09:14.873Z,67.83
2023-03-15T06:12:02.465Z,68.37
2023-03-15T06:14:36.927Z,68.50
2023-03-15T06:17:24.468Z,68.03
2023-03-15T06:19:58.914Z,67.55
2023-03-15T06:22:46.473Z,67.74
2023-03-15T06:25:20.883Z,67.45
2023-03-15T06:28:08.472Z,66.72
2023-03-15T06:30:49.497Z,66.67
2023-03-15T06:33:31.709Z,66.48
2023-03-15T06:36:13.469Z,66.35
2023-03-15T06:38:54.765Z,66.21
2023-03-15T06:41:36.481Z,66.41
2023-03-15T06:44:17.601Z,66.17
2023-03-15T06:46:58.473Z,66.26
2023-03-15T06:49:46.524Z,66.49
2023-03-15T06:52:27.447Z,66.55
2023-03-15T06:55:25.465Z,66.84
2023-03-15T06:58:13.457Z,66.13
2023-03-15T07:00:49.744Z,66.13
2023-03-15T07:03:37.461Z,66.03
2023-03-15T07:06:12.611Z,65.77
2023-03-15T07:09:00.471Z,65.53
2023-03-15T07:11:35.577Z,65.42
2023-03-15T07:14:23.466Z,65.22
2023-03-15T07:16:57.592Z,65.09
2023-03-15T07:19:55.912Z,65.39
2023-03-15T07:22:38.486Z,65.66
2023-03-15T07:25:39.676Z,65.65
2023-03-15T07:28:33.468Z,65.59
2023-03-15T07:31:10.836Z,65.63
2023-03-15T07:33:58.466Z,65.74
2023-03-15T07:36:33.618Z,65.70
2023-03-15T07:39:21.485Z,65.05
2023-03-15T07:41:56.601Z,63.87
2023-03-15T07:44:44.526Z,63.51
2023-03-15T07:47:26.521Z,63.39
2023-03-15T07:50:22.451Z,62.01
2023-03-15T07:53:11.457Z,61.46
2023-03-15T07:55:46.580Z,60.90
2023-03-15T07:58:34.473Z,61.15
2023-03-15T08:01:09.608Z,61.22
2023-03-15T08:03:57.542Z,61.54
2023-03-15T08:06:39.043Z,61.11
2023-03-15T08:09:20.447Z,61.26
2023-03-15T08:12:01.741Z,61.75
2023-03-15T08:14:44.472Z,61.98
2023-03-15T08:18:05.274Z,62.18
2023-03-15T08:20:47.454Z,61.82
2023-03-15T08:23:36.480Z,62.00
2023-03-15T08:26:24.525Z,62.54
2023-03-15T08:29:06.461Z,62.05
2023-03-15T08:32:01.547Z,61.50
2023-03-15T08:34:49.462Z,60.97
2023-03-15T08:37:24.607Z,59.77
2023-03-15T08:40:17.460Z,60.12
2023-03-15T08:42:51.625Z,60.33
2023-03-15T08:45:56.811Z,59.60
2023-03-15T08:48:40.537Z,59.36
2023-03-15T08:51:36.457Z,58.89
2023-03-15T08:54:32.485Z,59.17
2023-03-15T08:57:20.441Z,59.61
2023-03-15T08:59:54.629Z,58.89
2023-03-15T09:02:43.525Z,57.30
2023-03-15T09:05:18.694Z,57.23
2023-03-15T09:08:07.433Z,56.84
2023-03-15T09:10:48.450Z,56.75
2023-03-15T09:13:43.455Z,55.09
2023-03-15T09:16:38.464Z,55.04
2023-03-15T09:19:26.429Z,55.03
2023-03-15T09:22:16.420Z,53.59
2023-03-15T09:25:11.455Z,54.07
2023-03-15T09:27:53.445Z,53.66
2023-03-15T09:30:42.506Z,52.87
2023-03-15T09:33:17.594Z,53.57
2023-03-15T09:36:06.630Z,54.30
2023-03-15T09:38:48.453Z,54.18
2023-03-15T09:42:00.435Z,53.03
2023-03-15T09:44:52.445Z,53.20
2023-03-15T09:48:08.426Z,53.25
2023-03-15T09:51:07.475Z,51.09
2023-03-15T09:54:12.445Z,50.72
2023-03-15T09:57:04.457Z,49.81
2023-03-15T09:59:47.575Z,49.61
2023-03-15T10:02:37.444Z,50.21
2023-03-15T10:05:27.439Z,50.59
2023-03-15T10:08:22.442Z,51.56
2023-03-15T10:11:22.514Z,50.86
2023-03-15T10:14:29.454Z,50.61
2023-03-15T10:17:11.456Z,50.46
2023-03-15T10:20:08.442Z,50.47
2023-03-15T10:23:10.537Z,50.89
2023-03-15T10:25:46.492Z,50.93
2023-03-15T10:28:37.051Z,51.37
2023-03-15T10:31:22.294Z,51.14
2023-03-15T10:34:18.437Z,50.43
2023-03-15T10:37:13.440Z,50.00
2023-03-15T10:40:06.422Z,50.20
2023-03-15T10:42:41.574Z,49.84
2023-03-15T10:45:31.427Z,49.71
2023-03-15T10:48:05.579Z,49.36
2023-03-15T10:50:53.446Z,49.59
2023-03-15T10:53:28.666Z,49.92
2023-03-15T10:56:32.473Z,49.45
2023-03-15T10:59:12.854Z,49.11
2023-03-15T11:02:34.570Z,49.09
2023-03-15T11:05:29.661Z,48.92
2023-03-15T11:08:22.435Z,49.27
2023-03-15T11:11:12.419Z,49.32
2023-03-15T11:14:07.440Z,49.63
2023-03-15T11:16:42.595Z,49.37
2023-03-15T11:19:34.418Z,48.67
2023-03-15T11:22:09.790Z,48.20
2023-03-15T11:24:59.477Z,47.87
2023-03-15T11:27:35.584Z,48.29
2023-03-15T11:30:24.424Z,48.25
2023-03-15T11:32:59.633Z,47.73
2023-03-15T11:35:54.415Z,46.05
2023-03-15T11:38:44.201Z,45.76
2023-03-15T11:41:25.440Z,45.56
2023-03-15T11:44:32.551Z,45.09
2023-03-15T11:47:36.019Z,44.75
2023-03-15T11:50:23.606Z,45.18
2023-03-15T11:53:09.438Z,46.15
2023-03-15T11:56:08.495Z,46.97
2023-03-15T11:59:22.446Z,45.58
2023-03-15T12:02:22.463Z,46.31
2023-03-15T12:05:03.898Z,45.60
2023-03-15T12:08:06.528Z,45.46
2023-03-15T12:10:57.535Z,45.53
2023-03-15T12:13:45.470Z,45.67
2023-03-15T12:16:27.559Z,45.63
2023-03-15T12:19:23.449Z,44.91
2023-03-15T12:22:10.436Z,45.62
2023-03-15T12:25:05.434Z,45.12
2023-03-15T12:27:59.421Z,44.93
2023-03-15T12:30:52.458Z,45.88
2023-03-15T12:33:58.552Z,45.31
2023-03-15T12:36:48.423Z,44.90
2023-03-15T12:39:22.586Z,45.48
2023-03-15T12:42:11.412Z,45.63
2023-03-15T12:44:57.438Z,44.74
2023-03-15T12:47:57.432Z,43.81
2023-03-15T12:50:59.405Z,43.92
2023-03-15T12:53:50.431Z,43.95
2023-03-15T12:56:32.409Z,44.76
2023-03-15T12:59:30.513Z,44.10
2023-03-15T13:02:14.424Z,44.43
2023-03-15T13:05:17.423Z,44.43
2023-03-15T13:08:02.554Z,44.29
2023-03-15T13:11:12.430Z,44.36
2023-03-15T13:14:15.424Z,44.24
2023-03-15T13:17:14.440Z,44.30
2023-03-15T13:20:35.477Z,43.83
2023-03-15T13:23:35.662Z,43.82
2023-03-15T13:26:23.422Z,43.42
2023-03-15T13:29:08.682Z,43.01
2023-03-15T13:32:28.749Z,43.45
2023-03-15T13:35:03.996Z,44.18
2023-03-15T13:37:51.451Z,44.83
2023-03-15T13:40:33.435Z,44.61
2023-03-15T13:43:28.438Z,44.86
2023-03-15T13:46:16.437Z,44.12
2023-03-15T13:48:53.576Z,43.35
2023-03-15T13:51:44.426Z,43.44
2023-03-15T13:54:26.442Z,44.27
2023-03-15T13:57:25.427Z,44.63
2023-03-15T14:00:25.423Z,44.75
2023-03-15T14:03:02.632Z,45.08
2023-03-15T14:05:55.561Z,45.76
2023-03-15T14:08:47.471Z,45.99
2023-03-15T14:11:53.007Z,45.28
2023-03-15T14:14:51.449Z,44.93
2023-03-15T14:17:40.416Z,45.57
2023-03-15T14:20:21.937Z,45.41
2023-03-15T14:23:10.438Z,44.69
2023-03-15T14:25:45.596Z,44.28
2023-03-15T14:28:33.467Z,44.18
2023-03-15T14:31:08.734Z,43.90
2023-03-15T14:34:02.432Z,44.40
2023-03-15T14:36:46.468Z,44.14
2023-03-15T14:39:48.424Z,44.36
2023-03-15T14:42:30.655Z,44.26
2023-03-15T14:45:26.680Z,44.20
2023-03-15T14:48:25.440Z,45.58
2023-03-15T14:51:01.613Z,45.80
2023-03-15T14:53:50.407Z,46.76
2023-03-15T14:56:25.611Z,47.16
2023-03-15T14:59:19.428Z,47.60
2023-03-15T15:02:01.877Z,47.05
2023-03-15T15:04:50.418Z,47.08
2023-03-15T15:07:32.574Z,47.10
2023-03-15T15:10:13.921Z,47.31
2023-03-15T15:13:06.828Z,48.13
2023-03-15T15:15:54.704Z,48.28
2023-03-15T15:18:45.404Z,47.98
2023-03-15T15:21:33.798Z,48.87
2023-03-15T15:24:31.411Z,49.12
2023-03-15T15:27:05.844Z,48.36
2023-03-15T15:29:53.523Z,48.22
2023-03-15T15:32:28.907Z,48.29
2023-03-15T15:35:16.492Z,48.69
2023-03-15T15:37:52.205Z,49.75
2023-03-15T15:40:42.492Z,50.64
2023-03-15T15:43:17.147Z,51.06
2023-03-15T15:46:05.440Z,51.57
2023-03-15T15:48:42.041Z,51.30
2023-03-15T15:51:33.418Z,50.89
2023-03-15T15:54:17.180Z,51.40
2023-03-15T15:57:09.405Z,51.81
2023-03-15T15:59:43.806Z,52.10
2023-03-15T16:02:31.508Z,52.13
2023-03-15T16:05:08.374Z,52.20
2023-03-15T16:07:58.276Z,52.38
2023-03-15T16:10:37.557Z,52.46
2023-03-15T16:13:26.437Z,52.35
2023-03-15T16:16:08.525Z,52.74
2023-03-15T16:18:51.191Z,52.90
2023-03-15T16:21:40.415Z,53.11
2023-03-15T16:24:25.532Z,53.80
2023-03-15T16:27:08.437Z,54.19
2023-03-15T16:29:55.207Z,53.96
2023-03-15T16:32:44.481Z,54.34
2023-03-15T16:35:40.765Z,54.77
2023-03-15T16:38:18.749Z,54.51
2023-03-15T16:41:07.709Z,54.45
2023-03-15T16:43:43.132Z,54.74
2023-03-15T16:46:32.052Z,54.97
2023-03-15T16:49:08.479Z,55.66
2023-03-15T16:52:00.615Z,56.10
2023-03-15T16:54:51.393Z,56.40
2023-03-15T16:57:39.408Z,56.77
2023-03-15T17:00:21.531Z,57.11
2023-03-15T17:03:11.400Z,57.38
2023-03-15T17:05:54.464Z,57.93
2023-03-15T17:08:49.465Z,57.99
2023-03-15T17:11:38.707Z,57.62
2023-03-15T17:14:14.596Z,57.29
2023-03-15T17:17:02.423Z,57.37
2023-03-15T17:19:44.420Z,57.38
2023-03-15T17:22:39.400Z,57.69
2023-03-15T17:25:27.418Z,57.90
2023-03-15T17:28:02.520Z,58.06
2023-03-15T17:30:55.217Z,58.38
2023-03-15T17:33:41.541Z,58.69
2023-03-15T17:36:32.478Z,58.73
2023-03-15T17:39:07.559Z,58.95
2023-03-15T17:41:55.402Z,59.12
2023-03-15T17:44:38.438Z,59.17
2023-03-15T17:47:26.850Z,59.42
2023-03-15T17:50:07.553Z,59.58
2023-03-15T17:52:51.501Z,59.71
2023-03-15T17:55:46.404Z,59.86
2023-03-15T17:58:34.386Z,59.94
2023-03-15T18:01:10.115Z,60.10
2023-03-15T18:03:59.504Z,60.24
2023-03-15T18:06:34.519Z,60.41
2023-03-15T18:09:22.370Z,60.47
2023-03-15T18:12:03.612Z,60.62
2023-03-15T18:14:45.396Z,60.75
2023-03-15T18:17:26.754Z,60.83
2023-03-15T18:20:08.384Z,60.84
2023-03-15T18:22:49.559Z,60.93
2023-03-15T18:25:35.401Z,60.98
2023-03-15T18:28:23.700Z,61.09
2023-03-15T18:30:58.906Z,61.02
2023-03-15T18:33:46.465Z,60.83
2023-03-15T18:36:24.708Z,60.71
2023-03-15T18:39:13.474Z,60.54
2023-03-15T18:41:47.802Z,60.67
2023-03-15T18:44:35.540Z,60.61
2023-03-15T18:47:19.850Z,60.54
2023-03-15T18:50:09.927Z,60.42
2023-03-15T18:52:52.398Z,60.51
2023-03-15T18:55:42.725Z,60.57
2023-03-15T18:58:38.412Z,60.66
2023-03-15T19:01:29.610Z,60.83
2023-03-15T19:04:04.654Z,60.88
2023-03-15T19:06:52.751Z,61.19
2023-03-15T19:09:29.502Z,61.23
2023-03-15T19:12:18.382Z,61.38
2023-03-15T19:14:53.519Z,61.40
2023-03-15T19:17:41.381Z,61.46
2023-03-15T19:20:24.817Z,61.48
2023-03-15T19:23:06.523Z,61.48
2023-03-15T19:25:47.542Z,61.54
2023-03-15T19:28:29.368Z,61.61
2023-03-15T19:31:18.423Z,61.62
2023-03-15T19:33:53.225Z,61.71
2023-03-15T19:36:43.448Z,61.72
2023-03-15T19:39:19.300Z,61.86
2023-03-15T19:42:08.365Z,61.93
2023-03-15T19:44:43.856Z,61.84
2023-03-15T19:47:31.372Z,61.89
2023-03-15T19:50:13.660Z,61.85
2023-03-15T19:52:55.204Z,62.01
2023-03-15T19:55:37.359Z,62.07
2023-03-15T19:58:25.361Z,62.11
2023-03-15T20:01:01.757Z,62.08
2023-03-15T20:03:42.384Z,62.15
2023-03-15T20:06:31.373Z,62.29
2023-03-15T20:09:07.898Z,62.35
2023-03-15T20:11:55.360Z,62.50
2023-03-15T20:14:29.942Z,62.53
2023-03-15T20:17:19.376Z,62.41
2023-03-15T20:19:55.244Z,62.49
2023-03-15T20:22:47.677Z,62.60
2023-03-15T20:25:22.771Z,62.49
2023-03-15T20:28:11.372Z,62.44
2023-03-15T20:30:46.762Z,62.62
2023-03-15T20:33:34.564Z,62.67
2023-03-15T20:36:16.461Z,62.82
2023-03-15T20:38:57.488Z,62.92
2023-03-15T20:41:40.557Z,62.97
2023-03-15T20:44:22.506Z,63.10
2023-03-15T20:47:05.408Z,63.37
2023-03-15T20:49:53.393Z,63.39
2023-03-15T20:52:28.134Z,63.50
2023-03-15T20:55:16.376Z,63.81
2023-03-15T20:58:12.353Z,63.93
2023-03-15T21:01:09.446Z,64.23
2023-03-15T21:03:44.575Z,64.37
2023-03-15T21:06:32.361Z,64.42
2023-03-15T21:09:07.650Z,64.38
2023-03-15T21:11:59.175Z,64.54
2023-03-15T21:14:36.621Z,64.54
2023-03-15T21:17:24.348Z,64.85
2023-03-15T21:19:58.527Z,64.82
2023-03-15T21:22:46.368Z,64.78
2023-03-15T21:25:21.548Z,64.90
2023-03-15T21:28:11.652Z,65.05
2023-03-15T21:30:47.579Z,65.11
2023-03-15T21:33:36.336Z,65.28
2023-03-15T21:36:11.464Z,65.30
2023-03-15T21:38:59.340Z,65.30
2023-03-15T21:41:34.547Z,65.38
2023-03-15T21:44:23.352Z,65.41
2023-03-15T21:47:05.335Z,65.47
2023-03-15T21:50:00.333Z,65.54
2023-03-15T21:52:55.323Z,65.55
2023-03-15T21:55:53.325Z,65.73
2023-03-15T21:58:48.560Z,65.76
2023-03-15T22:01:36.449Z,65.85
2023-03-15T22:04:11.511Z,65.91
2023-03-15T22:06:59.328Z,65.72
2023-03-15T22:09:34.541Z,65.55
2023-03-15T22:12:26.279Z,65.34
2023-03-15T22:15:10.748Z,65.30
2023-03-15T22:17:58.455Z,65.22
2023-03-15T22:20:35.547Z,65.21
2023-03-15T22:23:27.091Z,65.36
2023-03-15T22:26:02.451Z,65.51
2023-03-15T22:28:50.339Z,65.67
2023-03-15T22:31:32.905Z,65.80
2023-03-15T22:34:20.337Z,65.87
2023-03-15T22:36:55.510Z,65.92
2023-03-15T22:39:44.039Z,66.07
2023-03-15T22:42:27.079Z,66.13
2023-03-15T22:45:17.427Z,66.31
2023-03-15T22:47:53.341Z,66.38
2023-03-15T22:50:43.124Z,66.60
2023-03-15T22:53:18.975Z,66.69
2023-03-15T22:56:15.077Z,66.80
2023-03-15T22:59:05.334Z,66.89
2023-03-15T23:01:40.599Z,67.02
2023-03-15T23:04:30.672Z,67.04
2023-03-15T23:07:06.543Z,67.20
2023-03-15T23:09:54.368Z,67.33
2023-03-15T23:12:35.833Z,67.46
2023-03-15T23:15:24.358Z,67.46
2023-03-15T23:18:06.544Z,67.68
2023-03-15T23:20:49.324Z,67.95
2023-03-15T23:23:37.547Z,68.07
2023-03-15T23:26:22.533Z,68.19
2023-03-15T23:29:10.648Z,68.40
2023-03-15T23:31:46.254Z,68.50
2023-03-15T23:34:34.318Z,68.61
2023-03-15T23:37:10.590Z,68.78
2023-03-15T23:40:00.325Z,68.81
2023-03-15T23:42:35.833Z,68.98
2023-03-15T23:45:24.334Z,69.17
2023-03-15T23:47:58.934Z,69.29
2023-03-15T23:50:47.316Z,69.32
2023-03-15T23:53:21.811Z,69.31
2023-03-15T23:56:09.329Z,69.50
2023-03-15T23:58:50.992Z,69.54
